sensor_id;sensor_type;location;lat;lon;timestamp;pressure;altitude;pressure_sealevel;temperature;humidity
6435;BME280;3250;42.694;23.278;2023-04-09T00:00:25;95028.13;;;8.38;85.74
6435;BME280;3250;42.694;23.278;2023-04-09T00:02:50;95011.72;;;8.29;85.37
6435;BME280;3250;42.694;23.278;2023-04-09T00:05:15;95022.94;;;8.23;85.93
6435;BME280;3250;42.694;23.278;2023-04-09T00:07:41;95037.00;;;8.37;86.40
6435;BME280;3250;42.694;23.278;2023-04-09T00:10:06;95030.34;;;8.41;84.71
6435;BME280;3250;42.694;23.278;2023-04-09T00:12:32;95038.69;;;8.51;84.84
6435;BME280;3250;42.694;23.278;2023-04-09T00:14:57;95042.72;;;8.47;85.30
6435;BME280;3250;42.694;23.278;2023-04-09T00:17:23;95041.94;;;8.53;84.28
6435;BME280;3250;42.694;23.278;2023-04-09T00:19:48;95040.03;;;8.41;84.67
6435;BME280;3250;42.694;23.278;2023-04-09T00:22:14;95044.06;;;8.37;85.18
6435;BME280;3250;42.694;23.278;2023-04-09T00:24:39;95016.72;;;8.24;85.20
6435;BME280;3250;42.694;23.278;2023-04-09T00:27:05;95036.59;;;8.40;85.43
6435;BME280;3250;42.694;23.278;2023-04-09T00:29:31;95037.69;;;8.52;84.94
6435;BME280;3250;42.694;23.278;2023-04-09T00:31:56;95041.94;;;8.53;84.24
6435;BME280;3250;42.694;23.278;2023-04-09T00:34:21;95046.78;;;8.56;84.14
6435;BME280;3250;42.694;23.278;2023-04-09T00:36:47;95036.03;;;8.45;84.64
6435;BME280;3250;42.694;23.278;2023-04-09T00:39:12;95049.13;;;8.38;85.54
6435;BME280;3250;42.694;23.278;2023-04-09T00:41:38;95045.09;;;8.42;85.62
6435;BME280;3250;42.694;23.278;2023-04-09T00:44:03;95029.16;;;8.44;85.40
6435;BME280;3250;42.694;23.278;2023-04-09T00:46:30;95046.00;;;8.56;85.29
6435;BME280;3250;42.694;23.278;2023-04-09T00:48:55;95046.44;;;8.66;84.17
6435;BME280;3250;42.694;23.278;2023-04-09T00:51:21;95038.72;;;8.58;84.55
6435;BME280;3250;42.694;23.278;2023-04-09T00:53:46;95041.19;;;8.66;84.12
6435;BME280;3250;42.694;23.278;2023-04-09T00:56:12;95035.53;;;8.62;84.10
6435;BME280;3250;42.694;23.278;2023-04-09T00:58:39;95034.91;;;8.60;83.88
6435;BME280;3250;42.694;23.278;2023-04-09T01:01:05;94995.78;;;8.31;84.21
6435;BME280;3250;42.694;23.278;2023-04-09T01:03:31;95039.16;;;8.61;84.47
6435;BME280;3250;42.694;23.278;2023-04-09T01:06:31;95041.00;;;8.67;83.95
6435;BME280;3250;42.694;23.278;2023-04-09T01:11:39;95040.38;;;8.65;84.13
6435;BME280;3250;42.694;23.278;2023-04-09T01:14:26;95048.84;;;8.61;84.71
6435;BME280;3250;42.694;23.278;2023-04-09T01:16:59;95031.44;;;8.53;84.21
6435;BME280;3250;42.694;23.278;2023-04-09T01:25:06;95025.53;;;8.45;84.66
6435;BME280;3250;42.694;23.278;2023-04-09T01:27:43;95041.16;;;8.59;85.48
6435;BME280;3250;42.694;23.278;2023-04-09T01:30:13;95045.63;;;8.65;84.96
6435;BME280;3250;42.694;23.278;2023-04-09T01:32:41;95046.88;;;8.69;86.20
6435;BME280;3250;42.694;23.278;2023-04-09T01:35:07;95039.94;;;8.55;86.44
6435;BME280;3250;42.694;23.278;2023-04-09T01:37:33;95048.25;;;8.65;86.91
6435;BME280;3250;42.694;23.278;2023-04-09T01:40:00;95048.47;;;8.64;86.75
6435;BME280;3250;42.694;23.278;2023-04-09T01:42:26;95058.56;;;8.67;87.19
6435;BME280;3250;42.694;23.278;2023-04-09T01:44:53;95051.13;;;8.70;87.07
6435;BME280;3250;42.694;23.278;2023-04-09T01:47:18;95051.31;;;8.76;86.99
6435;BME280;3250;42.694;23.278;2023-04-09T01:49:44;95031.50;;;8.66;86.77
6435;BME280;3250;42.694;23.278;2023-04-09T01:52:10;95051.34;;;8.82;86.44
6435;BME280;3250;42.694;23.278;2023-04-09T01:54:36;95051.16;;;8.84;86.39
6435;BME280;3250;42.694;23.278;2023-04-09T01:57:02;95049.53;;;8.83;86.55
6435;BME280;3250;42.694;23.278;2023-04-09T01:59:27;95047.53;;;8.85;86.40
6435;BME280;3250;42.694;23.278;2023-04-09T02:01:57;95037.44;;;8.82;86.46
6435;BME280;3250;42.694;23.278;2023-04-09T02:04:32;95041.28;;;8.86;86.50
6435;BME280;3250;42.694;23.278;2023-04-09T02:07:04;95025.91;;;8.76;86.26
6435;BME280;3250;42.694;23.278;2023-04-09T02:09:31;95042.47;;;8.83;86.11
6435;BME280;3250;42.694;23.278;2023-04-09T02:12:02;95025.88;;;8.69;86.42
6435;BME280;3250;42.694;23.278;2023-04-09T02:14:28;95037.81;;;8.72;86.50
6435;BME280;3250;42.694;23.278;2023-04-09T02:16:55;95038.41;;;8.74;85.90
6435;BME280;3250;42.694;23.278;2023-04-09T02:19:21;95041.44;;;8.71;85.45
6435;BME280;3250;42.694;23.278;2023-04-09T02:21:46;95033.28;;;8.59;85.39
6435;BME280;3250;42.694;23.278;2023-04-09T02:24:11;95005.53;;;8.37;86.19
6435;BME280;3250;42.694;23.278;2023-04-09T02:26:37;95028.19;;;8.51;85.92
6435;BME280;3250;42.694;23.278;2023-04-09T02:29:02;95037.53;;;8.60;86.24
6435;BME280;3250;42.694;23.278;2023-04-09T02:31:28;95041.16;;;8.59;86.35
6435;BME280;3250;42.694;23.278;2023-04-09T02:33:54;95044.56;;;8.53;86.81
6435;BME280;3250;42.694;23.278;2023-04-09T02:36:19;95044.16;;;8.56;87.02
6435;BME280;3250;42.694;23.278;2023-04-09T02:38:45;95047.56;;;8.50;87.31
6435;BME280;3250;42.694;23.278;2023-04-09T02:41:10;95022.91;;;8.45;87.03
6435;BME280;3250;42.694;23.278;2023-04-09T02:43:36;95038.72;;;8.58;86.33
6435;BME280;3250;42.694;23.278;2023-04-09T02:46:01;95044.78;;;8.58;86.56
6435;BME280;3250;42.694;23.278;2023-04-09T02:48:27;95045.19;;;8.55;86.14
6435;BME280;3250;42.694;23.278;2023-04-09T02:50:52;95034.47;;;8.57;86.49
6435;BME280;3250;42.694;23.278;2023-04-09T02:53:18;95030.00;;;8.51;85.76
6435;BME280;3250;42.694;23.278;2023-04-09T02:55:45;95033.59;;;8.43;85.56
6435;BME280;3250;42.694;23.278;2023-04-09T02:58:11;95036.81;;;8.39;85.04
6435;BME280;3250;42.694;23.278;2023-04-09T03:00:36;95033.31;;;8.31;85.89
6435;BME280;3250;42.694;23.278;2023-04-09T03:03:02;95040.19;;;8.32;85.70
6435;BME280;3250;42.694;23.278;2023-04-09T03:05:27;95045.00;;;8.29;86.01
6435;BME280;3250;42.694;23.278;2023-04-09T03:07:53;95021.28;;;8.16;86.35
6435;BME280;3250;42.694;23.278;2023-04-09T03:10:19;95023.53;;;8.19;86.43
6435;BME280;3250;42.694;23.278;2023-04-09T03:12:44;95036.75;;;8.32;86.14
6435;BME280;3250;42.694;23.278;2023-04-09T03:15:11;95038.75;;;8.30;85.80
6435;BME280;3250;42.694;23.278;2023-04-09T03:17:38;95020.09;;;8.18;85.81
6435;BME280;3250;42.694;23.278;2023-04-09T03:20:04;95033.06;;;8.26;85.36
6435;BME280;3250;42.694;23.278;2023-04-09T03:22:35;95023.53;;;8.19;85.61
6435;BME280;3250;42.694;23.278;2023-04-09T03:25:00;95024.91;;;8.15;85.78
6435;BME280;3250;42.694;23.278;2023-04-09T03:27:25;95040.25;;;8.18;85.75
6435;BME280;3250;42.694;23.278;2023-04-09T03:29:54;95039.09;;;8.20;85.54
6435;BME280;3250;42.694;23.278;2023-04-09T03:32:20;95035.66;;;8.20;85.46
6435;BME280;3250;42.694;23.278;2023-04-09T03:34:45;95030.78;;;8.17;85.11
6435;BME280;3250;42.694;23.278;2023-04-09T03:37:11;95024.69;;;8.10;85.52
6435;BME280;3250;42.694;23.278;2023-04-09T03:39:36;95035.16;;;8.10;85.81
6435;BME280;3250;42.694;23.278;2023-04-09T03:42:01;95031.91;;;8.08;85.98
6435;BME280;3250;42.694;23.278;2023-04-09T03:44:27;95020.72;;;7.92;86.18
6435;BME280;3250;42.694;23.278;2023-04-09T03:46:52;95035.13;;;8.03;86.20
6435;BME280;3250;42.694;23.278;2023-04-09T03:49:18;95035.69;;;7.99;86.22
6435;BME280;3250;42.694;23.278;2023-04-09T03:51:43;95041.50;;;7.94;86.37
6435;BME280;3250;42.694;23.278;2023-04-09T03:54:08;95020.41;;;7.81;86.52
6435;BME280;3250;42.694;23.278;2023-04-09T03:56:34;95047.13;;;7.91;86.91
6435;BME280;3250;42.694;23.278;2023-04-09T03:58:59;95028.88;;;7.76;86.86
6435;BME280;3250;42.694;23.278;2023-04-09T04:01:25;95051.91;;;7.87;87.01
6435;BME280;3250;42.694;23.278;2023-04-09T04:03:50;95053.53;;;7.88;86.55
6435;BME280;3250;42.694;23.278;2023-04-09T04:06:15;95049.91;;;7.89;86.62
6435;BME280;3250;42.694;23.278;2023-04-09T04:08:41;95049.91;;;7.89;86.70
6435;BME280;3250;42.694;23.278;2023-04-09T04:11:06;95041.66;;;7.86;86.82
6435;BME280;3250;42.694;23.278;2023-04-09T04:13:31;95047.13;;;7.91;86.40
6435;BME280;3250;42.694;23.278;2023-04-09T04:15:57;95052.19;;;7.92;86.20
6435;BME280;3250;42.694;23.278;2023-04-09T04:18:22;95044.31;;;7.92;86.18
6435;BME280;3250;42.694;23.278;2023-04-09T04:20:48;95058.41;;;7.91;86.07
6435;BME280;3250;42.694;23.278;2023-04-09T04:23:13;95053.00;;;7.93;85.89
6435;BME280;3250;42.694;23.278;2023-04-09T04:25:41;95052.53;;;7.89;86.22
6435;BME280;3250;42.694;23.278;2023-04-09T04:28:07;95045.91;;;7.87;86.80
6435;BME280;3250;42.694;23.278;2023-04-09T04:30:32;95049.97;;;7.96;86.41
6435;BME280;3250;42.694;23.278;2023-04-09T04:32:58;95044.50;;;7.91;86.08
6435;BME280;3250;42.694;23.278;2023-04-09T04:35:23;95058.28;;;8.00;86.29
6435;BME280;3250;42.694;23.278;2023-04-09T04:37:49;95051.41;;;7.99;86.21
6435;BME280;3250;42.694;23.278;2023-04-09T04:40:15;95056.50;;;8.07;86.21
6435;BME280;3250;42.694;23.278;2023-04-09T04:42:41;95052.72;;;8.09;86.24
6435;BME280;3250;42.694;23.278;2023-04-09T04:45:07;95055.34;;;8.09;85.67
6435;BME280;3250;42.694;23.278;2023-04-09T04:47:32;95057.00;;;8.17;85.52
6435;BME280;3250;42.694;23.278;2023-04-09T04:49:58;95054.56;;;8.15;85.46
6435;BME280;3250;42.694;23.278;2023-04-09T04:52:23;95041.78;;;8.06;85.37
6435;BME280;3250;42.694;23.278;2023-04-09T04:54:49;95057.38;;;8.14;85.75
6435;BME280;3250;42.694;23.278;2023-04-09T04:57:14;95049.75;;;8.19;85.81
6435;BME280;3250;42.694;23.278;2023-04-09T04:59:40;95064.06;;;8.44;84.49
6435;BME280;3250;42.694;23.278;2023-04-09T05:02:06;95051.19;;;8.49;85.08
6435;BME280;3250;42.694;23.278;2023-04-09T05:04:32;95043.13;;;8.51;83.84
6435;BME280;3250;42.694;23.278;2023-04-09T05:06:57;95048.66;;;8.62;83.69
6435;BME280;3250;42.694;23.278;2023-04-09T05:09:23;95054.19;;;8.81;83.44
6435;BME280;3250;42.694;23.278;2023-04-09T05:11:48;95044.91;;;8.85;82.30
6435;BME280;3250;42.694;23.278;2023-04-09T05:14:13;95063.91;;;8.87;82.16
6435;BME280;3250;42.694;23.278;2023-04-09T05:16:39;95067.72;;;8.84;82.19
6435;BME280;3250;42.694;23.278;2023-04-09T05:19:04;95037.38;;;8.75;81.86
6435;BME280;3250;42.694;23.278;2023-04-09T05:21:30;95041.72;;;8.89;81.45
6435;BME280;3250;42.694;23.278;2023-04-09T05:23:56;95047.59;;;8.98;81.25
6435;BME280;3250;42.694;23.278;2023-04-09T05:26:21;95044.81;;;8.65;82.36
6435;BME280;3250;42.694;23.278;2023-04-09T05:28:47;95058.50;;;8.54;83.92
6435;BME280;3250;42.694;23.278;2023-04-09T05:31:13;95065.59;;;8.60;84.22
6435;BME280;3250;42.694;23.278;2023-04-09T05:33:40;95067.38;;;8.59;83.65
6435;BME280;3250;42.694;23.278;2023-04-09T05:36:05;95062.81;;;8.68;84.24
6435;BME280;3250;42.694;23.278;2023-04-09T05:38:31;95057.75;;;8.66;83.52
6435;BME280;3250;42.694;23.278;2023-04-09T05:40:57;95052.09;;;8.63;84.13
6435;BME280;3250;42.694;23.278;2023-04-09T05:43:22;95067.63;;;8.64;83.95
6435;BME280;3250;42.694;23.278;2023-04-09T05:45:48;95071.69;;;8.74;83.17
6435;BME280;3250;42.694;23.278;2023-04-09T05:48:13;95082.00;;;8.75;82.85
6435;BME280;3250;42.694;23.278;2023-04-09T05:50:39;95075.28;;;8.66;82.84
6435;BME280;3250;42.694;23.278;2023-04-09T05:53:04;95069.53;;;8.84;83.20
6435;BME280;3250;42.694;23.278;2023-04-09T05:55:30;95067.19;;;9.02;81.77
6435;BME280;3250;42.694;23.278;2023-04-09T05:57:56;95062.19;;;9.07;80.97
6435;BME280;3250;42.694;23.278;2023-04-09T06:00:22;95066.03;;;9.11;80.00
6435;BME280;3250;42.694;23.278;2023-04-09T06:02:47;95065.47;;;9.29;80.29
6435;BME280;3250;42.694;23.278;2023-04-09T06:05:13;95064.91;;;9.33;79.27
6435;BME280;3250;42.694;23.278;2023-04-09T06:07:38;95074.81;;;9.44;78.68
6435;BME280;3250;42.694;23.278;2023-04-09T06:10:04;95062.50;;;9.52;78.71
6435;BME280;3250;42.694;23.278;2023-04-09T06:12:30;95066.97;;;9.51;78.31
6435;BME280;3250;42.694;23.278;2023-04-09T06:14:55;95072.25;;;9.64;77.74
6435;BME280;3250;42.694;23.278;2023-04-09T06:17:20;95075.69;;;9.65;77.94
6435;BME280;3250;42.694;23.278;2023-04-09T06:19:46;95077.13;;;9.74;77.46
6435;BME280;3250;42.694;23.278;2023-04-09T06:22:11;95072.88;;;9.86;77.02
6435;BME280;3250;42.694;23.278;2023-04-09T06:24:37;95075.75;;;10.11;77.93
6435;BME280;3250;42.694;23.278;2023-04-09T06:27:02;95078.56;;;10.49;75.41
6435;BME280;3250;42.694;23.278;2023-04-09T06:29:27;95077.53;;;10.70;74.05
6435;BME280;3250;42.694;23.278;2023-04-09T06:31:53;95077.88;;;10.93;72.69
6435;BME280;3250;42.694;23.278;2023-04-09T06:34:19;95089.19;;;11.07;70.37
6435;BME280;3250;42.694;23.278;2023-04-09T06:36:44;95086.31;;;11.21;71.76
6435;BME280;3250;42.694;23.278;2023-04-09T06:39:11;95101.22;;;11.34;68.45
6435;BME280;3250;42.694;23.278;2023-04-09T06:41:37;95076.13;;;11.25;68.46
6435;BME280;3250;42.694;23.278;2023-04-09T06:44:02;95091.50;;;11.34;67.93
6435;BME280;3250;42.694;23.278;2023-04-09T06:46:27;95097.69;;;11.09;68.04
6435;BME280;3250;42.694;23.278;2023-04-09T06:48:53;95069.03;;;10.61;69.45
6435;BME280;3250;42.694;23.278;2023-04-09T06:51:18;95097.38;;;10.79;69.55
6435;BME280;3250;42.694;23.278;2023-04-09T06:53:44;95097.97;;;10.87;70.01
6435;BME280;3250;42.694;23.278;2023-04-09T06:56:09;95094.88;;;10.90;70.36
6435;BME280;3250;42.694;23.278;2023-04-09T06:58:35;95082.41;;;10.66;70.71
6435;BME280;3250;42.694;23.278;2023-04-09T07:01:01;95101.03;;;10.65;70.51
6435;BME280;3250;42.694;23.278;2023-04-09T07:03:26;95093.97;;;10.45;70.93
6435;BME280;3250;42.694;23.278;2023-04-09T07:05:53;95081.41;;;10.41;72.30
6435;BME280;3250;42.694;23.278;2023-04-09T07:08:19;95093.75;;;10.53;72.23
6435;BME280;3250;42.694;23.278;2023-04-09T07:10:47;95098.00;;;10.61;70.95
6435;BME280;3250;42.694;23.278;2023-04-09T07:13:12;95104.31;;;10.34;71.77
6435;BME280;3250;42.694;23.278;2023-04-09T07:15:37;95104.69;;;10.24;71.83
6435;BME280;3250;42.694;23.278;2023-04-09T07:18:03;95104.50;;;10.26;72.22
6435;BME280;3250;42.694;23.278;2023-04-09T07:20:28;95090.72;;;10.24;72.12
6435;BME280;3250;42.694;23.278;2023-04-09T07:22:54;95074.31;;;10.08;72.00
6435;BME280;3250;42.694;23.278;2023-04-09T07:25:19;95080.38;;;9.89;72.12
6435;BME280;3250;42.694;23.278;2023-04-09T07:27:45;95096.56;;;9.93;71.73
6435;BME280;3250;42.694;23.278;2023-04-09T07:30:11;95086.16;;;9.52;73.35
6435;BME280;3250;42.694;23.278;2023-04-09T07:32:36;95088.19;;;9.50;73.27
6435;BME280;3250;42.694;23.278;2023-04-09T07:35:05;95085.16;;;9.53;73.50
6435;BME280;3250;42.694;23.278;2023-04-09T07:37:30;95094.72;;;9.73;72.60
6435;BME280;3250;42.694;23.278;2023-04-09T07:39:56;95094.72;;;9.80;72.25
6435;BME280;3250;42.694;23.278;2023-04-09T07:42:22;95105.66;;;9.77;71.27
6435;BME280;3250;42.694;23.278;2023-04-09T07:44:47;95110.91;;;9.90;69.80
6435;BME280;3250;42.694;23.278;2023-04-09T07:47:13;95080.78;;;10.06;70.24
6435;BME280;3250;42.694;23.278;2023-04-09T07:49:38;95102.66;;;10.59;68.15
6435;BME280;3250;42.694;23.278;2023-04-09T07:52:04;95088.41;;;10.93;68.09
6435;BME280;3250;42.694;23.278;2023-04-09T07:54:31;95112.34;;;11.49;65.60
6435;BME280;3250;42.694;23.278;2023-04-09T07:56:57;95110.06;;;11.53;63.43
6435;BME280;3250;42.694;23.278;2023-04-09T07:59:23;95105.81;;;11.52;63.18
6435;BME280;3250;42.694;23.278;2023-04-09T08:01:48;95096.69;;;11.54;64.97
6435;BME280;3250;42.694;23.278;2023-04-09T08:04:14;95120.47;;;11.92;63.35
6435;BME280;3250;42.694;23.278;2023-04-09T08:06:39;95108.25;;;11.98;62.23
6435;BME280;3250;42.694;23.278;2023-04-09T08:09:05;95122.09;;;11.87;62.78
6435;BME280;3250;42.694;23.278;2023-04-09T08:11:31;95112.50;;;11.54;62.93
6435;BME280;3250;42.694;23.278;2023-04-09T08:13:57;95105.13;;;11.25;63.28
6435;BME280;3250;42.694;23.278;2023-04-09T08:16:22;95111.06;;;11.01;63.85
6435;BME280;3250;42.694;23.278;2023-04-09T08:18:51;95084.00;;;10.80;64.17
6435;BME280;3250;42.694;23.278;2023-04-09T08:21:17;95106.25;;;10.84;64.40
6435;BME280;3250;42.694;23.278;2023-04-09T08:23:43;95115.69;;;11.18;64.60
6435;BME280;3250;42.694;23.278;2023-04-09T08:26:08;95115.56;;;11.51;63.92
6435;BME280;3250;42.694;23.278;2023-04-09T08:28:34;95098.31;;;11.55;62.36
6435;BME280;3250;42.694;23.278;2023-04-09T08:30:59;95124.84;;;11.67;62.77
6435;BME280;3250;42.694;23.278;2023-04-09T08:33:25;95111.97;;;11.39;63.06
6435;BME280;3250;42.694;23.278;2023-04-09T08:35:51;95130.47;;;11.70;63.58
6435;BME280;3250;42.694;23.278;2023-04-09T08:38:17;95121.44;;;11.98;63.14
6435;BME280;3250;42.694;23.278;2023-04-09T08:40:43;95115.03;;;12.12;61.50
6435;BME280;3250;42.694;23.278;2023-04-09T08:43:09;95109.81;;;12.05;61.86
6435;BME280;3250;42.694;23.278;2023-04-09T08:45:39;95114.09;;;11.62;61.59
6435;BME280;3250;42.694;23.278;2023-04-09T08:48:08;95102.78;;;11.55;64.07
6435;BME280;3250;42.694;23.278;2023-04-09T08:50:34;95127.13;;;11.50;64.39
6435;BME280;3250;42.694;23.278;2023-04-09T08:53:04;95117.41;;;11.44;64.80
6435;BME280;3250;42.694;23.278;2023-04-09T08:55:30;95130.25;;;11.79;64.10
6435;BME280;3250;42.694;23.278;2023-04-09T08:57:55;95096.25;;;12.02;64.27
6435;BME280;3250;42.694;23.278;2023-04-09T09:00:23;95119.00;;;12.28;62.26
6435;BME280;3250;42.694;23.278;2023-04-09T09:03:05;95109.44;;;12.02;62.36
6435;BME280;3250;42.694;23.278;2023-04-09T09:05:49;95113.66;;;12.09;62.90
6435;BME280;3250;42.694;23.278;2023-04-09T09:08:24;95089.81;;;11.91;62.47
6435;BME280;3250;42.694;23.278;2023-04-09T09:10:50;95124.16;;;12.16;62.78
6435;BME280;3250;42.694;23.278;2023-04-09T09:15:49;95112.66;;;11.66;63.23
6435;BME280;3250;42.694;23.278;2023-04-09T09:18:18;95096.31;;;11.44;64.27
6435;BME280;3250;42.694;23.278;2023-04-09T09:20:43;95100.41;;;11.40;64.67
6435;BME280;3250;42.694;23.278;2023-04-09T09:23:09;95095.66;;;11.55;64.48
6435;BME280;3250;42.694;23.278;2023-04-09T09:25:39;95108.97;;;11.73;63.00
6435;BME280;3250;42.694;23.278;2023-04-09T09:28:10;95107.91;;;11.88;65.01
6435;BME280;3250;42.694;23.278;2023-04-09T09:30:36;95104.19;;;11.95;62.76
6435;BME280;3250;42.694;23.278;2023-04-09T09:35:51;95106.28;;;12.18;62.36
6435;BME280;3250;42.694;23.278;2023-04-09T09:38:19;95109.59;;;11.76;62.71
6435;BME280;3250;42.694;23.278;2023-04-09T09:40:46;95095.78;;;11.73;64.04
6435;BME280;3250;42.694;23.278;2023-04-09T09:43:14;95079.97;;;11.73;64.00
6435;BME280;3250;42.694;23.278;2023-04-09T09:45:40;95085.66;;;11.70;63.92
6435;BME280;3250;42.694;23.278;2023-04-09T09:48:09;95079.69;;;11.44;64.57
6435;BME280;3250;42.694;23.278;2023-04-09T09:50:37;95077.28;;;11.42;64.76
6435;BME280;3250;42.694;23.278;2023-04-09T09:53:04;95082.66;;;11.60;64.67
6435;BME280;3250;42.694;23.278;2023-04-09T09:55:31;95074.38;;;11.57;63.35
6435;BME280;3250;42.694;23.278;2023-04-09T09:58:01;95074.88;;;11.41;65.82
6435;BME280;3250;42.694;23.278;2023-04-09T10:00:31;95078.66;;;11.51;64.38
6435;BME280;3250;42.694;23.278;2023-04-09T10:03:02;95065.41;;;11.64;65.95
6435;BME280;3250;42.694;23.278;2023-04-09T10:05:32;95068.47;;;11.61;61.93
6435;BME280;3250;42.694;23.278;2023-04-09T10:08:01;95059.06;;;11.34;63.09
6435;BME280;3250;42.694;23.278;2023-04-09T10:10:27;95070.44;;;11.72;65.95
6435;BME280;3250;42.694;23.278;2023-04-09T10:12:53;95075.50;;;11.74;61.54
6435;BME280;3250;42.694;23.278;2023-04-09T10:15:20;95075.28;;;11.82;60.91
6435;BME280;3250;42.694;23.278;2023-04-09T10:17:45;95079.53;;;11.77;60.41
6435;BME280;3250;42.694;23.278;2023-04-09T10:20:23;95079.34;;;11.71;60.97
6435;BME280;3250;42.694;23.278;2023-04-09T10:22:51;95059.31;;;11.64;59.65
6435;BME280;3250;42.694;23.278;2023-04-09T10:25:17;95069.59;;;11.79;60.83
6435;BME280;3250;42.694;23.278;2023-04-09T10:27:43;95062.03;;;11.89;59.97
6435;BME280;3250;42.694;23.278;2023-04-09T10:30:30;95064.72;;;11.82;60.37
6435;BME280;3250;42.694;23.278;2023-04-09T10:33:07;95070.63;;;11.78;60.39
6435;BME280;3250;42.694;23.278;2023-04-09T10:35:33;95056.47;;;11.65;60.00
6435;BME280;3250;42.694;23.278;2023-04-09T10:37:59;95065.22;;;11.59;59.71
6435;BME280;3250;42.694;23.278;2023-04-09T10:40:27;95057.19;;;11.48;60.08
6435;BME280;3250;42.694;23.278;2023-04-09T10:42:53;95057.28;;;11.66;60.23
6435;BME280;3250;42.694;23.278;2023-04-09T10:45:19;95042.34;;;11.91;59.53
6435;BME280;3250;42.694;23.278;2023-04-09T10:47:48;95056.97;;;12.12;59.17
6435;BME280;3250;42.694;23.278;2023-04-09T10:50:25;95045.94;;;12.22;58.63
6435;BME280;3250;42.694;23.278;2023-04-09T10:52:56;95007.44;;;12.14;57.43
6435;BME280;3250;42.694;23.278;2023-04-09T10:55:34;95040.06;;;12.44;57.79
6435;BME280;3250;42.694;23.278;2023-04-09T10:58:05;95043.75;;;12.62;58.02
6435;BME280;3250;42.694;23.278;2023-04-09T11:00:31;95018.13;;;12.44;57.47
6435;BME280;3250;42.694;23.278;2023-04-09T11:03:12;95011.97;;;12.50;57.71
6435;BME280;3250;42.694;23.278;2023-04-09T11:05:46;95006.47;;;12.33;57.66
6435;BME280;3250;42.694;23.278;2023-04-09T11:08:13;95036.38;;;12.45;58.47
6435;BME280;3250;42.694;23.278;2023-04-09T11:10:40;95007.72;;;12.49;57.86
6435;BME280;3250;42.694;23.278;2023-04-09T11:13:10;95020.13;;;12.67;57.18
6435;BME280;3250;42.694;23.278;2023-04-09T11:15:38;95023.38;;;12.69;55.94
6435;BME280;3250;42.694;23.278;2023-04-09T11:18:04;95017.09;;;12.63;57.15
6435;BME280;3250;42.694;23.278;2023-04-09T11:20:32;95025.94;;;12.75;56.26
6435;BME280;3250;42.694;23.278;2023-04-09T11:22:58;95020.72;;;12.69;55.32
6435;BME280;3250;42.694;23.278;2023-04-09T11:25:27;95027.75;;;12.75;56.03
6435;BME280;3250;42.694;23.278;2023-04-09T11:27:53;95005.06;;;12.49;56.33
6435;BME280;3250;42.694;23.278;2023-04-09T11:30:19;95030.25;;;12.52;55.76
6435;BME280;3250;42.694;23.278;2023-04-09T11:32:46;95003.53;;;12.41;55.94
6435;BME280;3250;42.694;23.278;2023-04-09T11:35:16;95022.22;;;12.40;55.72
6435;BME280;3250;42.694;23.278;2023-04-09T11:37:43;95021.41;;;12.39;55.99
6435;BME280;3250;42.694;23.278;2023-04-09T11:40:20;95019.09;;;12.50;56.48
6435;BME280;3250;42.694;23.278;2023-04-09T11:42:48;95014.69;;;12.43;55.44
6435;BME280;3250;42.694;23.278;2023-04-09T11:45:14;94981.16;;;12.26;55.53
6435;BME280;3250;42.694;23.278;2023-04-09T11:47:41;94999.66;;;12.44;56.34
6435;BME280;3250;42.694;23.278;2023-04-09T11:50:08;95003.78;;;12.58;55.66
6435;BME280;3250;42.694;23.278;2023-04-09T11:52:34;94995.47;;;12.55;55.58
6435;BME280;3250;42.694;23.278;2023-04-09T11:55:03;95002.44;;;12.67;56.85
6435;BME280;3250;42.694;23.278;2023-04-09T11:57:45;94991.50;;;12.64;54.95
6435;BME280;3250;42.694;23.278;2023-04-09T12:00:12;95003.19;;;12.74;58.89
6435;BME280;3250;42.694;23.278;2023-04-09T12:02:46;94997.56;;;12.71;60.65
6435;BME280;3250;42.694;23.278;2023-04-09T12:05:20;94998.84;;;12.80;62.80
6435;BME280;3250;42.694;23.278;2023-04-09T12:07:46;94983.97;;;12.85;61.17
6435;BME280;3250;42.694;23.278;2023-04-09T12:10:11;94985.31;;;13.06;61.64
6435;BME280;3250;42.694;23.278;2023-04-09T12:12:46;94987.09;;;13.12;62.02
6435;BME280;3250;42.694;23.278;2023-04-09T12:15:20;94988.88;;;13.18;62.24
6435;BME280;3250;42.694;23.278;2023-04-09T12:17:52;94986.66;;;13.15;61.14
6435;BME280;3250;42.694;23.278;2023-04-09T12:20:31;94984.66;;;13.11;60.99
6435;BME280;3250;42.694;23.278;2023-04-09T12:22:58;94968.91;;;13.04;61.90
6435;BME280;3250;42.694;23.278;2023-04-09T12:25:26;94984.50;;;13.24;62.18
6435;BME280;3250;42.694;23.278;2023-04-09T12:27:52;94980.44;;;13.40;61.32
6435;BME280;3250;42.694;23.278;2023-04-09T12:30:18;94982.28;;;13.39;60.29
6435;BME280;3250;42.694;23.278;2023-04-09T12:32:44;94978.63;;;13.52;61.78
6435;BME280;3250;42.694;23.278;2023-04-09T12:35:13;94970.59;;;13.47;59.08
6435;BME280;3250;42.694;23.278;2023-04-09T12:37:40;94961.97;;;13.51;59.91
6435;BME280;3250;42.694;23.278;2023-04-09T12:40:06;94977.91;;;13.75;61.25
6435;BME280;3250;42.694;23.278;2023-04-09T12:42:31;94976.75;;;13.82;57.48
6435;BME280;3250;42.694;23.278;2023-04-09T12:44:57;94965.25;;;13.88;55.57
6435;BME280;3250;42.694;23.278;2023-04-09T12:47:22;94971.25;;;13.95;53.87
6435;BME280;3250;42.694;23.278;2023-04-09T12:49:48;94970.31;;;14.02;51.99
6435;BME280;3250;42.694;23.278;2023-04-09T12:52:14;94974.25;;;13.99;51.91
6435;BME280;3250;42.694;23.278;2023-04-09T12:54:40;94935.66;;;13.56;51.72
6435;BME280;3250;42.694;23.278;2023-04-09T12:57:06;94963.13;;;13.55;52.53
6435;BME280;3250;42.694;23.278;2023-04-09T12:59:31;94971.72;;;13.51;52.04
6435;BME280;3250;42.694;23.278;2023-04-09T13:01:57;94968.31;;;13.32;53.07
6435;BME280;3250;42.694;23.278;2023-04-09T13:04:23;94958.06;;;13.24;52.39
6435;BME280;3250;42.694;23.278;2023-04-09T13:06:48;94959.41;;;13.15;52.89
6435;BME280;3250;42.694;23.278;2023-04-09T13:09:14;94961.09;;;13.09;52.33
6435;BME280;3250;42.694;23.278;2023-04-09T13:11:40;94951.31;;;13.10;52.60
6435;BME280;3250;42.694;23.278;2023-04-09T13:14:05;94939.81;;;13.04;52.75
6435;BME280;3250;42.694;23.278;2023-04-09T13:16:31;94958.16;;;13.17;53.15
6435;BME280;3250;42.694;23.278;2023-04-09T13:18:57;94947.81;;;12.98;52.29
6435;BME280;3250;42.694;23.278;2023-04-09T13:21:22;94961.28;;;12.96;52.45
6435;BME280;3250;42.694;23.278;2023-04-09T13:23:48;94963.34;;;12.94;52.81
6435;BME280;3250;42.694;23.278;2023-04-09T13:26:13;94950.44;;;12.86;52.74
6435;BME280;3250;42.694;23.278;2023-04-09T13:28:38;94951.72;;;12.95;52.90